Time;durP1;ratioP1;P1;durP2;ratioP2;P2;SDS_P1;SDS_P2;PMS_P1;PMS_P2;Temp;Humidity;BMP_temperature;BMP_pressure;BME280_temperature;BME280_humidity;BME280_pressure;Samples;Min_cycle;Max_cycle;Signal;HPM_P1;HPM_P2
2023/09/11 00:01:20;;;;;;;18.13;10.20;;;21.30;99.90;;;21.82;72.38;100440.66;5051346;28;20041;-85
2023/09/11 00:03:49;;;;;;;18.80;10.93;;;21.20;99.90;;;21.80;72.30;100431.97;5057755;28;20128;-85
2023/09/11 00:06:16;;;;;;;15.68;9.70;;;21.20;99.90;;;21.79;72.07;100433.88;5051517;28;20401;-85
2023/09/11 00:08:44;;;;;;;13.48;10.00;;;21.20;99.90;;;21.78;71.86;100434.16;5048997;28;20037;-85
2023/09/11 00:11:12;;;;;;;17.98;10.45;;;21.20;99.90;;;21.75;71.85;100427.38;5050971;28;20103;-85
2023/09/11 00:13:39;;;;;;;16.83;11.00;;;21.20;99.90;;;21.75;72.00;100423.88;5064574;28;20044;-85
2023/09/11 00:16:07;;;;;;;15.52;9.95;;;21.10;99.90;;;21.74;71.93;100424.97;5049716;28;20113;-85
2023/09/11 00:18:34;;;;;;;18.20;10.43;;;21.10;99.90;;;21.72;71.81;100417.13;5057331;28;20565;-85
2023/09/11 00:21:02;;;;;;;16.80;10.57;;;21.10;99.90;;;21.72;71.97;100419.03;5050678;28;20041;-85
2023/09/11 00:23:29;;;;;;;15.90;10.20;;;21.10;99.90;;;21.70;72.23;100415.78;5035326;28;20053;-85
2023/09/11 00:25:56;;;;;;;20.00;10.73;;;21.10;99.90;;;21.70;72.24;100408.44;5046481;28;20053;-85
2023/09/11 00:28:25;;;;;;;16.35;10.10;;;21.10;99.90;;;21.67;72.13;100403.59;5052753;28;20084;-85
2023/09/11 00:30:53;;;;;;;19.70;10.50;;;21.00;99.90;;;21.67;71.81;100408.19;5052164;28;20072;-85
2023/09/11 00:33:21;;;;;;;14.60;9.73;;;21.00;99.90;;;21.65;71.82;100411.19;5056825;28;20036;-85
2023/09/11 00:35:48;;;;;;;17.80;9.73;;;21.00;99.90;;;21.63;71.84;100407.97;5050782;28;20049;-85
2023/09/11 00:38:16;;;;;;;16.15;10.88;;;21.00;99.90;;;21.64;72.04;100415.00;5051306;28;20041;-85
2023/09/11 00:40:43;;;;;;;16.83;10.02;;;21.00;99.90;;;21.62;71.85;100411.78;5049724;28;20138;-85
2023/09/11 00:43:10;;;;;;;16.30;9.30;;;21.00;99.90;;;21.60;71.81;100406.63;5054936;28;20045;-85
2023/09/11 00:45:39;;;;;;;17.45;10.07;;;21.00;99.90;;;21.60;71.77;100411.25;5048823;28;20041;-85
2023/09/11 00:48:07;;;;;;;16.05;10.05;;;21.00;99.90;;;21.57;71.74;100401.78;5068761;28;20037;-85
2023/09/11 00:50:34;;;;;;;18.85;9.68;;;20.90;99.90;;;21.55;71.69;100405.88;5047729;28;20087;-85
2023/09/11 00:53:05;;;;;;;18.73;11.05;;;20.90;99.90;;;21.56;71.99;100397.44;5055006;28;20052;-85
2023/09/11 00:55:32;;;;;;;16.77;11.23;;;20.90;99.90;;;21.55;72.12;100401.25;5053476;28;20135;-85
2023/09/11 00:58:00;;;;;;;16.25;9.75;;;20.90;99.90;;;21.54;72.04;100401.53;5054443;28;20295;-85
2023/09/11 01:00:27;;;;;;;15.80;9.63;;;20.90;99.90;;;21.53;71.97;100402.63;5064746;28;20104;-85
2023/09/11 01:02:57;;;;;;;16.98;10.10;;;20.90;99.90;;;21.52;71.99;100398.28;5055535;28;20045;-85
2023/09/11 01:05:28;;;;;;;26.48;10.13;;;20.90;99.90;;;21.52;71.96;100398.28;5054248;28;20044;-84
2023/09/11 01:07:56;;;;;;;;;;;20.90;99.90;;;21.50;71.84;100397.78;5054168;28;20056;-85
2023/09/11 01:10:24;;;;;;;17.13;10.50;;;20.90;99.90;;;21.47;71.85;100401.88;5052175;28;20539;-85
2023/09/11 01:12:51;;;;;;;20.10;9.95;;;20.90;99.90;;;21.46;71.58;100400.25;5053052;28;20133;-85
2023/09/11 01:15:18;;;;;;;17.13;10.25;;;20.80;99.90;;;21.44;71.81;100397.03;5051105;28;20046;-85
2023/09/11 01:17:54;;;;;;;17.40;9.90;;;20.80;99.90;;;21.42;71.75;100391.03;5054107;28;20037;-85
2023/09/11 01:20:56;;;;;;;17.02;9.82;;;20.80;99.90;;;21.41;71.91;100392.16;5063705;28;20091;-86
2023/09/11 01:23:59;;;;;;;19.40;9.85;;;20.80;99.90;;;21.40;71.79;100395.16;5046759;28;21621;-85
2023/09/11 01:27:00;;;;;;;19.67;9.63;;;20.80;99.90;;;21.38;71.78;100390.03;5048413;28;20432;-85
2023/09/11 01:29:34;;;;;;;18.23;10.77;;;20.80;99.90;;;21.36;72.12;100392.19;5053552;28;20049;-85
2023/09/11 01:32:04;;;;;;;14.85;9.60;;;20.70;99.90;;;21.34;72.06;100386.25;5067259;28;20111;-85
2023/09/11 01:34:32;;;;;;;14.63;9.88;;;20.70;99.90;;;21.31;71.78;100387.63;5049524;28;20037;-85
2023/09/11 01:36:59;;;;;;;15.95;10.02;;;20.70;99.90;;;21.31;71.75;100390.34;5053528;28;20095;-85
2023/09/11 01:39:27;;;;;;;22.38;10.75;;;20.70;99.90;;;21.30;71.85;100383.28;5053404;28;20117;-85
2023/09/11 01:41:59;;;;;;;17.50;9.85;;;20.70;99.90;;;21.28;71.59;100385.47;5050609;28;20132;-85
2023/09/11 01:44:38;;;;;;;14.43;9.57;;;20.70;99.90;;;21.26;71.87;100379.50;5050192;28;20075;-85
2023/09/11 01:47:07;;;;;;;19.27;10.00;;;20.70;99.90;;;21.26;71.75;100381.41;5039079;28;20071;-85
2023/09/11 01:49:37;;;;;;;18.90;10.60;;;20.60;99.90;;;21.26;71.68;100379.50;5053369;28;20064;-85
2023/09/11 01:52:07;;;;;;;18.90;10.30;;;20.70;99.90;;;21.27;71.64;100372.97;5052217;28;20045;-85
2023/09/11 01:54:36;;;;;;;15.95;9.73;;;20.70;99.90;;;21.27;71.42;100375.69;5053131;28;20050;-84
2023/09/11 01:57:05;;;;;;;14.30;9.32;;;20.70;99.90;;;21.26;71.61;100378.69;5053697;28;20082;-85
2023/09/11 01:59:34;;;;;;;17.38;10.40;;;20.60;99.90;;;21.24;71.95;100373.56;5053037;28;20136;-85
2023/09/11 02:02:01;;;;;;;19.83;10.52;;;20.70;99.90;;;21.24;71.78;100372.75;5049322;28;20044;-85
2023/09/11 02:04:29;;;;;;;19.40;9.93;;;20.60;99.90;;;21.23;71.95;100365.72;5058686;28;20069;-85
2023/09/11 02:06:57;;;;;;;20.10;10.57;;;20.70;99.90;;;21.23;71.90;100376.56;5053904;28;20139;-85
2023/09/11 02:09:24;;;;;;;16.63;10.48;;;20.70;99.90;;;21.22;71.68;100374.91;5053715;28;20083;-85
2023/09/11 02:11:51;;;;;;;16.58;10.70;;;20.70;99.90;;;21.21;72.13;100370.59;5049262;28;20049;-85
2023/09/11 02:14:18;;;;;;;17.10;10.23;;;20.60;99.90;;;21.20;71.91;100379.84;5052630;28;20094;-85
2023/09/11 02:16:47;;;;;;;17.73;10.77;;;20.60;99.90;;;21.18;71.80;100380.13;5052527;28;20519;-85
2023/09/11 02:19:14;;;;;;;19.42;9.85;;;20.60;99.90;;;21.16;72.05;100370.63;5055702;28;20049;-85
2023/09/11 02:21:41;;;;;;;17.20;10.52;;;20.60;99.90;;;21.15;71.90;100375.25;5052751;28;20037;-84
2023/09/11 02:24:09;;;;;;;16.45;9.73;;;20.60;99.90;;;21.13;71.56;100366.59;5051485;28;20127;-85
2023/09/11 02:26:36;;;;;;;17.60;9.55;;;20.60;99.90;;;21.12;71.93;100364.97;5051484;28;20072;-86
2023/09/11 02:29:03;;;;;;;19.00;9.95;;;20.50;99.90;;;21.11;71.99;100362.53;5049430;28;20047;-85
2023/09/11 02:31:30;;;;;;;17.92;9.73;;;20.50;99.90;;;21.09;72.02;100360.94;5067872;28;20136;-85
2023/09/11 02:33:59;;;;;;;15.15;9.30;;;20.50;99.90;;;21.07;71.77;100368.53;5050500;28;20068;-85
2023/09/11 02:36:26;;;;;;;18.52;10.25;;;20.50;99.90;;;21.07;71.92;100367.72;5052259;28;20131;-85
2023/09/11 02:38:53;;;;;;;16.00;10.38;;;20.50;99.90;;;21.04;71.99;100369.13;5050893;28;20045;-85
2023/09/11 02:41:21;;;;;;;14.82;9.57;;;20.40;99.90;;;21.04;71.75;100360.97;5047904;28;20129;-85
2023/09/11 02:43:48;;;;;;;16.80;10.23;;;20.40;99.90;;;21.03;72.03;100356.66;5052234;28;20064;-84
2023/09/11 02:46:15;;;;;;;15.60;9.23;;;20.40;99.90;;;21.04;71.72;100357.47;5052294;28;20061;-85
2023/09/11 02:48:46;;;;;;;14.25;10.10;;;20.50;99.90;;;21.02;71.87;100354.19;5067979;28;20067;-85
2023/09/11 02:51:15;;;;;;;14.20;9.47;;;20.40;99.90;;;21.00;72.07;100359.13;5051787;28;20045;-85
2023/09/11 02:53:42;;;;;;;15.23;9.95;;;20.40;99.90;;;20.98;72.02;100345.81;5052543;28;20055;-85
2023/09/11 02:56:11;;;;;;;17.42;10.13;;;20.40;99.90;;;20.97;71.94;100346.91;5039769;28;20661;-85
2023/09/11 02:58:38;;;;;;;14.10;10.00;;;20.30;99.90;;;20.96;71.95;100350.72;5041348;28;20488;-85
2023/09/11 03:01:05;;;;;;;17.85;10.20;;;20.30;99.90;;;20.96;71.72;100355.34;5051279;28;20581;-84
2023/09/11 03:03:33;;;;;;;13.77;9.05;;;20.30;99.90;;;20.94;71.98;100343.97;5052303;28;20500;-85
2023/09/11 03:06:02;;;;;;;15.90;9.32;;;20.30;99.90;;;20.92;72.07;100338.81;5051015;28;20107;-85
2023/09/11 03:08:31;;;;;;;15.25;9.63;;;20.30;99.90;;;20.93;72.36;100335.00;5067541;28;20044;-85
2023/09/11 03:11:06;;;;;;;15.95;10.02;;;20.40;99.90;;;20.96;71.95;100337.16;5048618;28;20045;-85
2023/09/11 03:13:34;;;;;;;19.02;9.98;;;20.40;99.90;;;20.95;72.30;100340.16;5051719;28;20041;-85
2023/09/11 03:16:09;;;;;;;18.35;9.90;;;20.40;99.90;;;20.94;72.44;100336.66;5052150;28;20041;-85
2023/09/11 03:18:37;;;;;;;19.67;10.05;;;20.40;99.90;;;20.94;72.06;100333.94;5050760;28;20508;-85
2023/09/11 03:21:05;;;;;;;16.45;9.68;;;20.40;99.90;;;20.94;72.63;100333.94;5051032;28;20041;-85
2023/09/11 03:23:34;;;;;;;15.98;9.85;;;20.40;99.90;;;20.92;72.65;100333.41;5044892;28;20101;-85
2023/09/11 03:26:02;;;;;;;20.45;9.60;;;20.30;99.90;;;20.92;72.43;100325.28;5051101;28;20490;-85
2023/09/11 03:28:31;;;;;;;20.05;9.57;;;20.30;99.90;;;20.92;72.42;100332.59;5061985;28;20045;-85
2023/09/11 03:31:03;;;;;;;18.80;9.70;;;20.30;99.90;;;20.91;72.40;100336.41;5050272;28;20071;-85
2023/09/11 03:33:30;;;;;;;15.13;9.50;;;20.30;99.90;;;20.91;72.54;100330.97;5048212;28;20049;-84
2023/09/11 03:35:58;;;;;;;17.92;9.60;;;20.30;99.90;;;20.89;72.60;100330.47;5051314;28;20502;-85
2023/09/11 03:38:26;;;;;;;17.10;9.45;;;20.30;99.90;;;20.88;72.28;100332.34;5045822;28;20040;-85
2023/09/11 03:40:55;;;;;;;22.98;9.82;;;20.30;99.90;;;20.87;72.10;100322.59;5047780;28;20041;-85
2023/09/11 03:43:23;;;;;;;15.15;9.35;;;20.30;99.90;;;20.86;72.07;100331.81;5058923;28;20128;-85
2023/09/11 03:45:52;;;;;;;19.10;9.70;;;20.30;99.90;;;20.86;72.40;100328.31;5047068;28;20551;-85
2023/09/11 03:48:19;;;;;;;16.63;9.25;;;20.30;99.90;;;20.82;72.01;100323.44;5048726;28;20091;-84
2023/09/11 03:50:46;;;;;;;16.52;8.30;;;20.20;99.90;;;20.79;71.92;100320.50;5049580;28;20041;-85
2023/09/11 03:53:13;;;;;;;14.70;9.20;;;20.20;99.90;;;20.76;71.93;100319.16;5060772;28;20033;-85
2023/09/11 03:55:41;;;;;;;18.42;9.30;;;20.20;99.90;;;20.77;72.17;100311.84;5051395;28;20049;-85
2023/09/11 03:58:11;;;;;;;17.38;9.27;;;20.20;99.90;;;20.77;72.15;100309.94;5050459;28;20087;-85
2023/09/11 04:00:38;;;;;;;18.25;9.15;;;20.20;99.90;;;20.77;72.26;100309.94;5046862;28;20513;-84
2023/09/11 04:03:06;;;;;;;13.95;9.10;;;20.20;99.90;;;20.76;72.24;100307.50;5050860;28;20049;-85
2023/09/11 04:05:33;;;;;;;13.00;9.07;;;20.10;99.90;;;20.74;71.85;100301.53;5050451;28;20092;-84
2023/09/11 04:08:00;;;;;;;15.05;9.48;;;20.10;99.90;;;20.72;71.91;100307.25;5046473;28;20133;-86
2023/09/11 04:10:28;;;;;;;16.27;9.10;;;20.10;99.90;;;20.71;72.24;100313.78;5050658;28;20071;-85
2023/09/11 04:12:55;;;;;;;15.40;8.50;;;20.10;99.90;;;20.71;71.84;100307.56;5048190;28;20122;-83
2023/09/11 04:15:24;;;;;;;14.65;9.07;;;20.10;99.90;;;20.67;71.50;100303.78;5047755;28;20073;-84
2023/09/11 04:17:54;;;;;;;13.85;8.75;;;20.10;99.90;;;20.69;71.76;100307.00;5050817;28;20525;-85
2023/09/11 04:20:22;;;;;;;19.67;9.87;;;20.10;99.90;;;20.67;71.95;100304.59;5052012;28;20060;-84
2023/09/11 04:22:49;;;;;;;16.70;9.68;;;20.10;99.90;;;20.66;71.80;100304.88;5054755;28;20291;-84
2023/09/11 04:25:16;;;;;;;16.80;9.43;;;20.00;99.90;;;20.65;71.98;100295.94;5052223;28;20052;-84
2023/09/11 04:27:43;;;;;;;16.65;9.68;;;20.10;99.90;;;20.64;71.92;100297.00;5054333;28;20029;-84
2023/09/11 04:30:14;;;;;;;18.38;9.20;;;20.00;99.90;;;20.64;71.59;100294.31;5051426;28;20136;-83
2023/09/11 04:32:43;;;;;;;20.08;9.63;;;20.00;99.90;;;20.66;72.30;100304.88;5065377;28;20045;-83
2023/09/11 04:35:10;;;;;;;14.73;9.73;;;20.00;99.90;;;20.66;71.97;100300.25;5053007;28;20136;-83
2023/09/11 04:37:38;;;;;;;16.33;9.40;;;20.10;99.90;;;20.67;72.65;100299.16;5045434;28;20048;-84
2023/09/11 04:40:07;;;;;;;17.00;10.05;;;20.10;99.90;;;20.69;72.42;100301.59;5053162;28;20048;-84
2023/09/11 04:42:37;;;;;;;17.95;9.60;;;20.10;99.90;;;20.67;72.42;100298.38;5045484;28;20484;-83
2023/09/11 04:45:07;;;;;;;15.68;9.27;;;20.10;99.90;;;20.64;72.30;100290.78;5049709;28;20052;-83
2023/09/11 04:47:34;;;;;;;16.35;9.57;;;20.00;99.90;;;20.63;71.95;100292.69;5047977;28;20038;-83
2023/09/11 04:50:04;;;;;;;16.50;9.02;;;20.00;99.90;;;20.58;72.00;100290.81;5069345;28;20045;-82
2023/09/11 04:52:31;;;;;;;13.98;8.73;;;20.00;99.90;;;20.57;71.89;100288.41;5049650;28;20147;-82
2023/09/11 04:54:59;;;;;;;14.32;9.05;;;20.00;99.90;;;20.55;71.88;100290.59;5048778;28;20045;-82
2023/09/11 04:57:26;;;;;;;17.23;9.55;;;20.00;99.90;;;20.54;71.50;100292.47;5053367;28;20040;-84
2023/09/11 04:59:54;;;;;;;16.27;9.30;;;19.90;99.90;;;20.52;72.02;100291.97;5051457;28;20532;-82
2023/09/11 05:02:21;;;;;;;17.52;9.40;;;19.90;99.90;;;20.50;71.91;100296.88;5049719;28;20395;-82
2023/09/11 05:04:49;;;;;;;16.65;9.30;;;19.90;99.90;;;20.48;71.87;100290.91;5052892;28;20041;-83
2023/09/11 05:07:18;;;;;;;16.67;9.13;;;19.90;99.90;;;20.46;71.77;100297.66;5060520;28;20099;-83
2023/09/11 05:09:45;;;;;;;18.65;9.38;;;19.80;99.90;;;20.44;72.16;100289.81;5050166;28;20037;-84
2023/09/11 05:12:13;;;;;;;21.38;9.15;;;19.80;99.90;;;20.44;71.97;100295.22;5052354;28;20131;-83
2023/09/11 05:14:40;;;;;;;13.23;9.40;;;19.80;99.90;;;20.43;71.79;100298.22;5049216;28;20049;-84
2023/09/11 05:17:07;;;;;;;16.83;8.90;;;19.80;99.90;;;20.44;71.93;100297.94;5040911;28;20094;-83
2023/09/11 05:19:35;;;;;;;19.70;9.35;;;19.90;99.90;;;20.43;72.08;100299.03;5046475;28;20077;-83
2023/09/11 05:22:02;;;;;;;17.75;9.45;;;19.80;99.90;;;20.43;72.18;100301.75;5043611;28;20052;-88
2023/09/11 05:24:31;;;;;;;18.13;9.45;;;19.80;99.90;;;20.42;72.17;100296.59;5061208;28;20049;-85
2023/09/11 05:26:59;;;;;;;19.17;8.85;;;19.80;99.90;;;20.40;72.27;100296.91;5055097;28;20098;-84
2023/09/11 05:29:26;;;;;;;15.00;8.82;;;19.80;99.90;;;20.40;72.29;100294.19;5054216;28;20111;-85
2023/09/11 05:31:53;;;;;;;13.93;8.63;;;19.80;99.90;;;20.40;72.61;100296.06;5053107;28;20076;-88
2023/09/11 05:34:20;;;;;;;20.13;8.98;;;19.80;99.90;;;20.37;72.59;100302.88;5058155;28;20041;-89
2023/09/11 05:36:48;;;;;;;15.38;9.25;;;19.80;99.90;;;20.39;72.72;100297.97;5069413;28;20068;-86
2023/09/11 05:39:15;;;;;;;12.93;8.57;;;19.80;99.90;;;20.40;72.81;100294.19;5052007;28;20040;-86
2023/09/11 05:41:43;;;;;;;17.45;9.27;;;19.80;99.90;;;20.44;73.09;100291.72;5036961;28;20120;-86
2023/09/11 05:44:11;;;;;;;17.15;9.40;;;19.90;99.90;;;20.46;73.17;100303.09;5034048;28;20520;-86
2023/09/11 05:46:38;;;;;;;13.57;9.55;;;19.90;99.90;;;20.49;73.04;100305.25;5051807;28;20084;-86
2023/09/11 05:49:05;;;;;;;18.65;9.05;;;20.00;99.90;;;20.51;72.79;100300.38;5050741;28;20406;-86
2023/09/11 05:51:33;;;;;;;22.70;9.75;;;20.00;99.90;;;20.53;73.20;100301.69;5076211;28;20091;-87
2023/09/11 05:54:00;;;;;;;18.85;9.52;;;20.00;99.90;;;20.57;72.94;100301.94;5051802;28;20045;-87
2023/09/11 05:56:27;;;;;;;14.77;9.43;;;20.10;99.90;;;20.58;73.31;100300.84;5062912;28;20160;-86
2023/09/11 05:58:56;;;;;;;19.48;10.23;;;20.10;99.90;;;20.60;73.71;100300.59;5051838;28;21006;-87
2023/09/11 06:01:23;;;;;;;18.45;9.88;;;20.10;99.90;;;20.64;73.75;100309.75;5053035;28;20067;-85
2023/09/11 06:03:51;;;;;;;15.52;10.43;;;20.20;99.90;;;20.66;73.08;100307.59;5052522;28;20603;-89
2023/09/11 06:06:18;;;;;;;20.15;10.07;;;20.20;99.90;;;20.69;73.41;100307.84;5048232;28;20141;-86
2023/09/11 06:08:46;;;;;;;19.83;10.30;;;20.20;99.90;;;20.71;73.41;100310.25;5032042;28;20084;-86
2023/09/11 06:11:13;;;;;;;25.40;10.73;;;20.30;99.90;;;20.74;73.25;100312.38;5040827;28;20071;-86
2023/09/11 06:13:41;;;;;;;22.17;10.43;;;20.40;99.90;;;20.78;73.48;100310.75;5068152;28;20071;-86
2023/09/11 06:16:10;;;;;;;20.50;10.52;;;20.40;99.90;;;20.82;73.68;100311.78;5043802;28;20033;-86
2023/09/11 06:18:37;;;;;;;16.55;10.25;;;20.50;99.90;;;20.87;73.80;100313.66;5050973;28;20127;-86
2023/09/11 06:21:04;;;;;;;19.67;10.75;;;20.60;99.90;;;20.88;73.87;100316.06;5045662;28;20049;-86
2023/09/11 06:23:32;;;;;;;20.17;10.70;;;20.70;99.90;;;20.92;74.17;100319.84;5050557;28;20044;-87
2023/09/11 06:25:59;;;;;;;21.30;11.20;;;20.80;99.90;;;20.97;74.39;100322.50;5050133;28;20480;-87
2023/09/11 06:31:14;;;;;;;17.77;11.27;;;21.00;99.90;;;21.09;74.25;100320.25;5086344;22;20056;-89
2023/09/11 06:33:42;;;;;;;22.55;12.13;;;21.10;99.90;;;21.19;74.22;100326.69;5063994;28;20099;-89
2023/09/11 06:36:10;;;;;;;19.63;11.27;;;21.20;99.90;;;21.26;74.27;100324.44;5060650;28;20041;-86
2023/09/11 06:38:37;;;;;;;21.77;12.25;;;21.20;99.90;;;21.34;74.34;100330.09;5052141;28;20084;-86
2023/09/11 06:41:04;;;;;;;22.00;13.15;;;21.30;99.90;;;21.43;74.28;100326.75;5049928;28;20033;-86
2023/09/11 06:43:32;;;;;;;20.50;13.13;;;21.30;99.90;;;21.49;74.50;100328.31;5051254;28;20128;-87
2023/09/11 06:45:59;;;;;;;19.33;13.27;;;21.40;99.90;;;21.56;74.81;100331.47;5041364;28;20048;-87
2023/09/11 06:48:28;;;;;;;27.23;14.50;;;21.40;99.90;;;21.64;74.32;100327.34;5032802;28;20072;-84
2023/09/11 06:50:55;;;;;;;22.70;13.73;;;21.50;99.90;;;21.70;73.72;100326.19;5045109;28;20056;-87
2023/09/11 06:53:23;;;;;;;23.20;14.23;;;21.60;99.90;;;21.76;73.45;100319.59;5051364;28;20045;-85
2023/09/11 06:55:51;;;;;;;26.20;13.90;;;21.70;99.90;;;21.81;73.21;100325.78;5051361;28;20045;-84
2023/09/11 06:58:18;;;;;;;22.67;13.15;;;21.80;99.90;;;21.89;73.95;100318.09;5051375;28;20467;-84
2023/09/11 07:00:45;;;;;;;24.45;11.93;;;21.80;99.90;;;21.94;73.77;100318.84;5049492;28;20524;-85
2023/09/11 07:03:13;;;;;;;29.67;12.48;;;21.90;99.90;;;22.00;73.90;100314.94;5039272;28;20104;-84
2023/09/11 07:05:41;;;;;;;24.85;11.55;;;22.00;99.90;;;22.09;74.67;100315.13;5031605;28;20149;-84
2023/09/11 07:08:09;;;;;;;22.05;12.65;;;22.00;99.90;;;22.15;74.21;100319.41;5031502;28;20073;-84
2023/09/11 07:10:36;;;;;;;20.20;11.55;;;22.10;99.90;;;22.22;73.78;100319.06;5047351;28;20626;-84
2023/09/11 07:13:03;;;;;;;25.27;11.60;;;22.20;99.90;;;22.31;74.67;100317.31;5050607;28;20132;-84
2023/09/11 07:15:31;;;;;;;19.80;11.23;;;22.30;99.90;;;22.37;73.65;100307.97;5051193;28;20068;-84
2023/09/11 07:17:58;;;;;;;24.95;11.05;;;22.40;99.90;;;22.44;73.17;100315.75;5050990;28;20041;-86
2023/09/11 07:20:25;;;;;;;28.40;10.90;;;22.50;99.90;;;22.48;71.23;100298.56;5049626;28;20115;-85
2023/09/11 07:22:54;;;;;;;19.27;10.10;;;22.60;99.90;;;22.55;71.62;100306.38;5074657;28;20033;-85
2023/09/11 07:25:22;;;;;;;21.55;9.68;;;22.60;99.90;;;22.59;71.20;100302.78;5072184;28;20040;-85
2023/09/11 07:27:50;;;;;;;20.65;10.43;;;22.70;99.90;;;22.69;73.03;100307.22;5070967;28;20098;-84
2023/09/11 07:30:17;;;;;;;25.63;11.45;;;22.80;99.90;;;22.77;74.13;100308.47;5052235;28;20045;-84
2023/09/11 07:32:45;;;;;;;26.52;10.02;;;22.90;99.90;;;22.83;73.25;100305.34;5050236;28;20044;-84
2023/09/11 07:35:13;;;;;;;27.25;11.25;;;23.00;99.90;;;22.97;76.00;100304.63;5051106;28;20041;-85
2023/09/11 07:37:40;;;;;;;22.83;8.98;;;23.10;99.90;;;23.08;73.64;100301.47;5050956;28;20045;-85
2023/09/11 07:40:10;;;;;;;21.27;8.90;;;23.20;99.90;;;23.19;73.60;100293.13;5049392;28;20576;-85
2023/09/11 07:42:37;;;;;;;20.67;9.65;;;23.30;99.90;;;23.33;75.24;100292.03;5083310;28;20148;-85
2023/09/11 07:45:06;;;;;;;19.42;8.45;;;23.50;99.90;;;23.44;73.80;100297.28;5051991;28;20220;-85
2023/09/11 07:47:33;;;;;;;15.05;7.43;;;23.60;99.90;;;23.54;70.41;100289.72;5050772;28;20060;-85
2023/09/11 07:50:00;;;;;;;20.80;8.02;;;23.70;99.90;;;23.63;66.86;100295.28;5045319;28;20044;-85
2023/09/11 07:52:28;;;;;;;18.98;6.75;;;23.80;99.90;;;23.75;66.37;100294.78;5050903;28;20047;-85
2023/09/11 07:54:55;;;;;;;14.75;7.40;;;23.90;99.90;;;23.87;67.54;100305.97;5054989;28;20049;-85
2023/09/11 07:57:24;;;;;;;17.63;7.63;;;24.10;99.90;;;23.92;67.50;100297.72;5054780;28;20551;-85
2023/09/11 07:59:52;;;;;;;18.83;7.88;;;24.10;99.90;;;23.99;67.68;100300.81;5051445;28;20041;-85
2023/09/11 08:02:19;;;;;;;13.45;7.03;;;24.20;99.90;;;24.07;64.84;100299.28;5053838;28;20493;-85
2023/09/11 08:04:46;;;;;;;26.40;7.38;;;24.30;99.90;;;24.12;65.19;100302.72;5088182;28;20506;-85
2023/09/11 08:07:13;;;;;;;18.08;6.90;;;24.40;99.90;;;24.16;64.79;100297.47;5054403;28;20048;-85
2023/09/11 08:09:41;;;;;;;15.90;7.20;;;24.40;99.90;;;24.21;65.83;100299.28;5055943;28;20099;-85
2023/09/11 08:12:08;;;;;;;15.43;7.32;;;24.50;99.90;;;24.25;63.91;100301.06;5053530;28;20095;-85
2023/09/11 08:14:37;;;;;;;19.95;6.95;;;24.50;99.90;;;24.32;64.12;100297.94;5055747;28;20698;-85
2023/09/11 08:17:05;;;;;;;14.98;7.15;;;24.50;99.90;;;24.37;64.11;100300.56;5055416;28;20486;-85
2023/09/11 08:19:32;;;;;;;13.15;6.10;;;24.60;99.90;;;24.42;64.21;100303.19;5053159;28;20699;-86
2023/09/11 08:21:59;;;;;;;18.73;6.53;;;24.70;99.90;;;24.47;63.35;100296.81;5053537;28;20041;-86
2023/09/11 08:24:27;;;;;;;16.67;6.60;;;24.70;99.90;;;24.53;64.13;100296.38;5054293;28;20144;-85
2023/09/11 08:26:54;;;;;;;19.98;6.60;;;24.80;99.90;;;24.60;63.07;100304.94;5054364;28;20044;-85
2023/09/11 08:29:21;;;;;;;12.45;6.05;;;24.80;99.90;;;24.64;61.79;100292.31;5053768;28;20514;-86
2023/09/11 08:31:50;;;;;;;16.40;5.97;;;24.90;99.90;;;24.70;60.29;100294.91;5047319;28;20045;-86
2023/09/11 08:34:17;;;;;;;18.10;6.22;;;25.00;99.90;;;24.75;60.36;100298.31;5035200;28;20064;-85
2023/09/11 08:36:44;;;;;;;15.57;6.65;;;25.00;99.90;;;24.80;60.14;100297.38;5035664;28;20115;-86
2023/09/11 08:39:12;;;;;;;22.35;6.97;;;25.10;99.90;;;24.81;57.78;100302.50;5041012;28;20486;-85
2023/09/11 08:41:41;;;;;;;16.13;6.20;;;25.10;99.90;;;24.85;58.80;100302.72;5063543;28;20137;-85
2023/09/11 08:44:08;;;;;;;20.13;5.70;;;25.10;99.90;;;24.93;57.78;100310.13;5036743;28;20053;-85
2023/09/11 08:46:40;;;;;;;20.98;6.28;;;25.10;99.90;;;24.97;57.85;100308.38;5054915;28;20779;-85
2023/09/11 08:49:12;;;;;;;23.02;6.20;;;25.20;99.90;;;25.03;58.00;100312.59;5052987;28;20049;-85
2023/09/11 08:51:54;;;;;;;20.35;6.13;;;25.30;99.90;;;25.10;57.62;100309.47;5045626;28;20046;-85
2023/09/11 08:54:29;;;;;;;18.02;6.38;;;25.40;99.50;;;25.13;58.37;100304.19;5035133;28;20091;-85
2023/09/11 08:56:58;;;;;;;20.67;6.43;;;25.40;99.90;;;25.13;58.66;100290.56;5035256;28;20061;-89
2023/09/11 08:59:27;;;;;;;21.70;6.97;;;25.40;99.90;;;25.17;57.21;100290.72;5053219;28;20049;-86
2023/09/11 09:01:55;;;;;;;19.05;6.60;;;25.50;98.80;;;25.24;56.04;100293.00;5043646;28;20033;-87
2023/09/11 09:04:26;;;;;;;17.88;6.25;;;25.50;97.90;;;25.26;57.06;100297.03;5035678;28;20492;-87
2023/09/11 09:06:54;;;;;;;14.27;5.95;;;25.50;98.30;;;25.28;56.66;100300.25;5053377;28;20509;-87
2023/09/11 09:09:22;;;;;;;13.30;6.43;;;25.60;98.10;;;25.34;56.20;100292.75;5053153;28;20041;-87
2023/09/11 09:11:51;;;;;;;16.92;5.85;;;25.60;97.00;;;25.40;57.05;100297.75;5047491;28;20132;-87
2023/09/11 09:14:20;;;;;;;17.55;6.18;;;25.70;97.90;;;25.45;56.37;100296.78;5033610;28;20093;-87
2023/09/11 09:16:48;;;;;;;14.15;5.70;;;25.80;97.40;;;25.50;55.63;100299.38;5017330;28;20044;-87
2023/09/11 09:19:15;;;;;;;16.50;6.10;;;25.80;96.40;;;25.49;55.81;100296.97;5069808;28;20040;-87
2023/09/11 09:22:13;;;;;;;15.68;5.70;;;25.80;96.40;;;25.61;56.01;100297.97;5049286;28;20038;-87
2023/09/11 09:24:50;;;;;;;20.25;6.38;;;25.90;96.20;;;25.65;56.05;100298.16;5042757;28;20049;-88
2023/09/11 09:27:18;;;;;;;16.48;6.47;;;25.90;96.60;;;25.58;55.69;100293.16;5050232;28;20140;-87
2023/09/11 09:29:45;;;;;;;18.65;6.63;;;25.90;96.20;;;25.61;53.25;100295.25;5054243;28;20115;-87
2023/09/11 09:32:13;;;;;;;16.38;5.80;;;25.90;93.40;;;25.66;54.00;100288.84;5085862;28;20057;-87
2023/09/11 09:34:49;;;;;;;20.98;6.20;;;26.00;95.00;;;25.71;54.44;100283.22;5086656;28;20053;-88
2023/09/11 09:37:19;;;;;;;17.60;6.47;;;26.00;95.00;;;25.78;54.23;100291.00;5052782;28;20053;-88
2023/09/11 09:39:49;;;;;;;13.70;5.95;;;26.00;94.90;;;25.82;54.33;100292.78;5052764;28;20137;-88
2023/09/11 09:42:18;;;;;;;16.92;5.82;;;26.10;95.20;;;25.82;53.79;100283.78;5052272;28;20045;-88
2023/09/11 09:44:52;;;;;;;11.32;5.88;;;26.10;94.30;;;25.81;56.16;100285.69;5053076;28;20068;-88
2023/09/11 09:47:21;;;;;;;14.25;5.18;;;26.10;96.30;;;25.87;54.26;100284.44;5053831;28;20124;-88
2023/09/11 09:49:51;;;;;;;11.95;5.57;;;26.10;95.10;;;25.92;55.69;100283.47;5052362;28;20045;-88
2023/09/11 09:52:23;;;;;;;18.60;6.05;;;26.20;96.00;;;25.94;54.69;100278.50;5053689;28;20041;-88
2023/09/11 09:55:02;;;;;;;14.30;6.30;;;26.20;95.10;;;25.93;54.34;100271.41;5054064;28;20131;-86
2023/09/11 09:57:30;;;;;;;18.50;6.35;;;26.20;95.00;;;25.92;55.00;100264.34;5052476;28;20080;-86
2023/09/11 10:00:01;;;;;;;11.82;5.65;;;26.20;95.10;;;25.97;53.35;100261.47;5049242;28;20042;-87
2023/09/11 10:02:34;;;;;;;14.55;6.05;;;26.20;93.60;;;25.96;54.11;100264.50;5051229;28;20076;-87
2023/09/11 10:05:08;;;;;;;12.05;5.60;;;26.20;94.20;;;25.94;55.53;100265.63;5053710;28;20494;-86
2023/09/11 10:07:43;;;;;;;15.45;5.93;;;26.20;95.30;;;26.02;55.78;100258.56;5060508;28;20044;-87
2023/09/11 10:10:22;;;;;;;20.58;6.75;;;26.30;96.00;;;26.04;52.48;100256.31;5085359;28;20037;-88
2023/09/11 10:13:02;;;;;;;15.02;6.30;;;26.30;92.70;;;26.04;53.81;100259.06;5086064;28;20143;-85
2023/09/11 10:15:31;;;;;;;13.60;5.60;;;26.30;93.80;;;26.10;54.51;100260.50;5050143;28;20428;-89